LiveATC.Net - Listen to live air traffic control over the Internet!


ICAO: KEDU  IATA: EDU   Airport: University Airport
City: Davis   State/Province: California
Country: United States   Continent: North America
KEDU METAR Weather: KEDU 222015Z AUTO 22003KT 8SM CLR 29/15 A2999 RMK AO1
KEDU Flight Activity (FlightAware)
KEDU Airport Info   (AirNav) (iFlightPlanner)
KEDU VFR Sectional Chart   (iFlightPlanner) 
KEDU IFR Low Chart   (iFlightPlanner) 
KEDU CTAF
Feed Status: UP   Listeners: 0
Listen right in your browser - requires Flash (in browser, requires Flash)
Click here to listen with your own player (launches your MP3 player)
KEDU CTAF Audio Archives
FacilityFrequency
University CTAF123.075


NOTICE

Unauthorized use prohibited. See LiveATC.net Terms of Service


Find LiveATC Audio Streams


Airport/ARTCC Code

Frequency Search
(e.g., 124.400, 128.75)
Site-wide search
 


Browse LiveATC Feeds
LiveATC Coverage Map
Top 50 LiveATC Feeds
Bad Weather Areas

LiveATC FAQ
Offer a LiveATC Feed
Contact LiveATC.net
Press Inquiries

LiveATC on iPhone
LiveATC on Android

Windows Phone
Windows 8/10

LiveATC Mobile
(Mobile browser)

ATC Audio Archives
Interesting Recordings

LiveATC Forums


Home Page
About LiveATC.net
Make a Donation
LiveATC Store

Terms of Use
Privacy Policy

Canadian Air Freqs

AIRMETs/SIGMETs

FAA Airport Status
Nat'l Airspace Status
Arrival Demand Charts


Server Software By:
Icecast.org
Liquidsoap